createdAt,value
2023-06-13T00:00:12.006Z,17.4
2023-06-13T00:01:14.370Z,17.4
2023-06-13T00:02:15.626Z,17.3
2023-06-13T00:03:16.787Z,17.3
2023-06-13T00:04:18.041Z,17.3
2023-06-13T00:05:19.420Z,17.3
2023-06-13T00:06:20.578Z,17.2
2023-06-13T00:07:21.772Z,17.2
2023-06-13T00:08:22.988Z,17.2
2023-06-13T00:09:24.190Z,17.2
2023-06-13T00:10:25.351Z,17.2
2023-06-13T00:11:26.541Z,17.1
2023-06-13T00:12:27.712Z,17.1
2023-06-13T00:13:28.854Z,17.1
2023-06-13T00:14:30.058Z,17.1
2023-06-13T00:15:31.203Z,17.1
2023-06-13T00:16:32.390Z,17.1
2023-06-13T00:17:33.542Z,17.1
2023-06-13T00:18:34.870Z,17
2023-06-13T00:19:36.037Z,17
2023-06-13T00:20:37.205Z,17
2023-06-13T00:21:38.372Z,17
2023-06-13T00:22:39.533Z,17
2023-06-13T00:23:40.741Z,16.9
2023-06-13T00:24:41.919Z,16.9
2023-06-13T00:25:43.062Z,16.9
2023-06-13T00:26:44.232Z,16.9
2023-06-13T00:27:45.390Z,16.9
2023-06-13T00:28:46.571Z,16.9
2023-06-13T00:29:47.728Z,16.8
2023-06-13T00:30:49.039Z,16.8
2023-06-13T00:31:50.426Z,16.8
2023-06-13T00:32:51.628Z,16.8
2023-06-13T00:33:52.827Z,16.8
2023-06-13T00:34:54.017Z,16.7
2023-06-13T00:35:55.160Z,16.7
2023-06-13T00:36:56.521Z,16.7
2023-06-13T00:37:57.823Z,16.7
2023-06-13T00:38:58.997Z,16.7
2023-06-13T00:40:00.191Z,16.6
2023-06-13T00:41:01.323Z,16.6
2023-06-13T00:42:02.591Z,16.6
2023-06-13T00:43:03.766Z,16.6
2023-06-13T00:44:04.926Z,16.6
2023-06-13T00:45:06.102Z,16.5
2023-06-13T00:46:07.257Z,16.5
2023-06-13T00:47:08.511Z,16.5
2023-06-13T00:48:09.853Z,16.5
2023-06-13T00:49:11.228Z,16.5
2023-06-13T00:50:12.534Z,16.5
2023-06-13T00:51:14.565Z,16.4
2023-06-13T00:52:15.742Z,16.4
2023-06-13T00:53:16.904Z,16.4
2023-06-13T00:54:18.508Z,16.4
2023-06-13T00:55:19.668Z,16.4
2023-06-13T00:56:20.831Z,16.3
2023-06-13T00:57:22.021Z,16.3
2023-06-13T00:58:23.170Z,16.3
2023-06-13T00:59:24.333Z,16.3
2023-06-13T01:00:25.517Z,16.3
2023-06-13T01:01:26.701Z,16.3
2023-06-13T01:02:27.878Z,16.2
2023-06-13T01:03:29.086Z,16.2
2023-06-13T01:04:30.313Z,16.2
2023-06-13T01:05:31.464Z,16.2
2023-06-13T01:06:32.625Z,16.2
2023-06-13T01:07:33.791Z,16.2
2023-06-13T01:08:34.960Z,16.1
2023-06-13T01:09:36.128Z,16.1
2023-06-13T01:10:37.299Z,16.1
2023-06-13T01:11:38.467Z,16.1
2023-06-13T01:12:39.625Z,16.1
2023-06-13T01:13:40.788Z,16
2023-06-13T01:14:41.959Z,16
2023-06-13T01:15:43.135Z,16
2023-06-13T01:16:44.357Z,16
2023-06-13T01:17:45.845Z,16
2023-06-13T01:18:47.165Z,16
2023-06-13T01:19:48.328Z,15.9
2023-06-13T01:20:49.495Z,15.9
2023-06-13T01:21:50.796Z,15.9
2023-06-13T01:22:51.938Z,15.9
2023-06-13T01:23:53.136Z,15.9
2023-06-13T01:24:54.345Z,15.8
2023-06-13T01:25:55.510Z,15.8
2023-06-13T01:26:56.674Z,15.8
2023-06-13T01:27:57.844Z,15.8
2023-06-13T01:28:59.147Z,15.8
2023-06-13T01:30:00.325Z,15.8
2023-06-13T01:31:01.486Z,15.7
2023-06-13T01:32:02.709Z,15.7
2023-06-13T01:33:03.962Z,15.7
2023-06-13T01:34:05.365Z,15.7
2023-06-13T01:35:06.532Z,15.6
2023-06-13T01:36:07.799Z,15.6
2023-06-13T01:37:08.961Z,15.6
2023-06-13T01:38:10.128Z,15.6
2023-06-13T01:39:11.301Z,15.5
2023-06-13T01:40:12.597Z,15.5
2023-06-13T01:41:14.753Z,15.5
2023-06-13T01:42:15.914Z,15.5
2023-06-13T01:43:17.225Z,15.5
2023-06-13T01:44:18.385Z,15.5
2023-06-13T01:45:19.556Z,15.4
2023-06-13T01:46:20.764Z,15.4
2023-06-13T01:47:22.242Z,15.4
2023-06-13T01:48:23.519Z,15.4
2023-06-13T01:49:24.662Z,15.4
2023-06-13T01:50:25.902Z,15.3
2023-06-13T01:51:27.071Z,15.3
2023-06-13T01:52:28.239Z,15.3
2023-06-13T01:53:29.392Z,15.3
2023-06-13T01:54:30.556Z,15.3
2023-06-13T01:55:31.769Z,15.2
2023-06-13T01:56:32.991Z,15.2
2023-06-13T01:57:34.289Z,15.2
2023-06-13T01:58:35.452Z,15.2
2023-06-13T01:59:36.622Z,15.2
2023-06-13T02:00:37.810Z,15.2
2023-06-13T02:01:39.001Z,15.1
2023-06-13T02:02:40.421Z,15.1
2023-06-13T02:03:41.786Z,15.1
2023-06-13T02:04:43.121Z,15.1
2023-06-13T02:05:44.286Z,15.1
2023-06-13T02:06:45.446Z,15
2023-06-13T02:07:46.615Z,15
2023-06-13T02:08:47.784Z,15
2023-06-13T02:09:48.947Z,15
2023-06-13T02:10:50.125Z,15
2023-06-13T02:11:51.323Z,15
2023-06-13T02:12:52.478Z,14.9
2023-06-13T02:13:53.646Z,14.9
2023-06-13T02:14:54.847Z,14.9
2023-06-13T02:15:55.992Z,14.9
2023-06-13T02:16:57.188Z,14.9
2023-06-13T02:17:58.571Z,14.9
2023-06-13T02:18:59.835Z,14.8
2023-06-13T02:20:00.980Z,14.8
2023-06-13T02:21:02.156Z,14.8
2023-06-13T02:22:03.305Z,14.8
2023-06-13T02:23:04.571Z,14.8
2023-06-13T02:24:05.768Z,14.8
2023-06-13T02:25:06.948Z,14.8
2023-06-13T02:26:08.132Z,14.7
2023-06-13T02:27:09.278Z,14.7
2023-06-13T02:28:10.447Z,14.7
2023-06-13T02:29:11.614Z,14.7
2023-06-13T02:30:13.128Z,14.7
2023-06-13T02:31:15.182Z,14.7
2023-06-13T02:32:16.356Z,14.7
2023-06-13T02:33:17.518Z,14.7
2023-06-13T02:34:18.712Z,14.6
2023-06-13T02:35:19.847Z,14.6
2023-06-13T02:36:21.015Z,14.6
2023-06-13T02:37:22.179Z,14.6
2023-06-13T02:38:23.343Z,14.6
2023-06-13T02:39:24.512Z,14.6
2023-06-13T02:40:25.678Z,14.6
2023-06-13T02:41:26.970Z,14.6
2023-06-13T02:42:28.098Z,14.6
2023-06-13T02:43:29.261Z,14.6
2023-06-13T02:44:30.435Z,14.6
2023-06-13T02:45:31.593Z,14.5
2023-06-13T02:46:32.819Z,14.5
2023-06-13T02:47:34.123Z,14.5
2023-06-13T02:48:35.616Z,14.5
2023-06-13T02:49:36.964Z,14.5
2023-06-13T02:50:38.102Z,14.5
2023-06-13T02:51:39.383Z,14.5
2023-06-13T02:52:40.514Z,14.5
2023-06-13T02:53:41.679Z,14.5
2023-06-13T02:54:42.845Z,14.4
2023-06-13T02:55:44.010Z,14.4
2023-06-13T02:56:45.177Z,14.4
2023-06-13T02:57:46.347Z,14.4
2023-06-13T02:58:47.509Z,14.4
2023-06-13T02:59:48.689Z,14.4
2023-06-13T03:00:49.874Z,14.4
2023-06-13T03:01:51.079Z,14.4
2023-06-13T03:02:52.358Z,14.4
2023-06-13T03:03:53.764Z,14.4
2023-06-13T03:04:55.038Z,14.4
2023-06-13T03:05:56.181Z,14.4
2023-06-13T03:06:57.348Z,14.4
2023-06-13T03:07:58.528Z,14.3
2023-06-13T03:08:59.675Z,14.3
2023-06-13T03:10:00.844Z,14.3
2023-06-13T03:11:02.007Z,14.3
2023-06-13T03:12:03.179Z,14.3
2023-06-13T03:13:04.332Z,14.3
2023-06-13T03:14:05.501Z,14.3
2023-06-13T03:15:06.835Z,14.3
2023-06-13T03:16:08.012Z,14.3
2023-06-13T03:17:09.185Z,14.3
2023-06-13T03:18:10.341Z,14.3
2023-06-13T03:19:11.515Z,14.3
2023-06-13T03:20:12.777Z,14.3
2023-06-13T03:21:13.903Z,14.3
2023-06-13T03:22:15.079Z,14.3
2023-06-13T03:23:16.312Z,14.3
2023-06-13T03:24:17.469Z,14.3
2023-06-13T03:25:18.751Z,14.3
2023-06-13T03:26:19.905Z,14.3
2023-06-13T03:27:21.094Z,14.3
2023-06-13T03:28:22.245Z,14.3
2023-06-13T03:29:23.429Z,14.3
2023-06-13T03:30:24.596Z,14.3
2023-06-13T03:31:25.850Z,14.3
2023-06-13T03:32:27.272Z,14.3
2023-06-13T03:33:28.468Z,14.3
2023-06-13T03:34:29.630Z,14.3
2023-06-13T03:35:30.985Z,14.3
2023-06-13T03:36:32.111Z,14.3
2023-06-13T03:37:33.283Z,14.3
2023-06-13T03:38:34.446Z,14.3
2023-06-13T03:39:35.615Z,14.3
2023-06-13T03:40:36.777Z,14.3
2023-06-13T03:41:37.944Z,14.3
2023-06-13T03:42:39.111Z,14.3
2023-06-13T03:43:40.278Z,14.3
2023-06-13T03:44:41.444Z,14.3
2023-06-13T03:45:42.608Z,14.3
2023-06-13T03:46:43.781Z,14.3
2023-06-13T03:47:45.066Z,14.3
2023-06-13T03:48:46.750Z,14.3
2023-06-13T03:49:48.336Z,14.3
2023-06-13T03:50:49.522Z,14.3
2023-06-13T03:51:50.666Z,14.4
2023-06-13T03:52:51.858Z,14.3
2023-06-13T03:53:53.008Z,14.4
2023-06-13T03:54:54.196Z,14.4
2023-06-13T03:55:55.331Z,14.4
2023-06-13T03:56:56.508Z,14.4
2023-06-13T03:57:57.684Z,14.4
2023-06-13T03:58:58.835Z,14.4
2023-06-13T04:00:00.002Z,14.4
2023-06-13T04:01:01.179Z,14.4
2023-06-13T04:02:02.342Z,14.4
2023-06-13T04:03:03.567Z,14.4
2023-06-13T04:04:05.021Z,14.5
2023-06-13T04:05:06.197Z,14.5
2023-06-13T04:06:07.401Z,14.5
2023-06-13T04:07:08.757Z,14.5
2023-06-13T04:08:09.935Z,14.5
2023-06-13T04:09:11.090Z,14.5
2023-06-13T04:10:12.489Z,14.5
2023-06-13T04:11:14.630Z,14.6
2023-06-13T04:12:15.805Z,14.6
2023-06-13T04:13:16.961Z,14.6
2023-06-13T04:14:18.136Z,14.6
2023-06-13T04:15:19.305Z,14.6
2023-06-13T04:16:20.567Z,14.7
2023-06-13T04:17:21.793Z,14.7
2023-06-13T04:18:22.924Z,14.7
2023-06-13T04:19:24.093Z,14.7
2023-06-13T04:20:25.344Z,14.8
2023-06-13T04:21:26.623Z,14.8
2023-06-13T04:22:27.776Z,14.8
2023-06-13T04:23:28.943Z,14.8
2023-06-13T04:24:30.216Z,14.9
2023-06-13T04:25:31.404Z,14.9
2023-06-13T04:26:32.569Z,14.9
2023-06-13T04:27:33.748Z,14.9
2023-06-13T04:28:34.903Z,14.9
2023-06-13T04:29:36.112Z,14.9
2023-06-13T04:30:37.314Z,15
2023-06-13T04:31:38.487Z,15
2023-06-13T04:32:39.695Z,15
2023-06-13T04:33:41.111Z,15.1
2023-06-13T04:34:42.638Z,15.1
2023-06-13T04:35:43.880Z,15.1
2023-06-13T04:36:45.076Z,15.1
2023-06-13T04:37:46.369Z,15.1
2023-06-13T04:38:47.534Z,15.2
2023-06-13T04:39:48.697Z,15.2
2023-06-13T04:40:49.873Z,15.2
2023-06-13T04:41:51.072Z,15.2
2023-06-13T04:42:52.267Z,15.2
2023-06-13T04:43:53.505Z,15.2
2023-06-13T04:44:54.785Z,15.3
2023-06-13T04:45:55.962Z,15.3
2023-06-13T04:46:57.308Z,15.3
2023-06-13T04:47:58.673Z,15.3
2023-06-13T04:48:59.949Z,15.3
2023-06-13T04:50:01.133Z,15.4
2023-06-13T04:51:02.303Z,15.4
2023-06-13T04:52:03.500Z,15.4
2023-06-13T04:53:04.657Z,15.4
2023-06-13T04:54:05.821Z,15.5
2023-06-13T04:55:06.990Z,15.5
2023-06-13T04:56:08.159Z,15.5
2023-06-13T04:57:09.362Z,15.5
2023-06-13T04:58:10.531Z,15.5
2023-06-13T04:59:11.697Z,15.6
2023-06-13T05:00:13.202Z,15.6
2023-06-13T05:01:15.222Z,15.6
2023-06-13T05:02:16.410Z,15.7
2023-06-13T05:03:17.609Z,15.7
2023-06-13T05:04:19.072Z,15.7
2023-06-13T05:05:20.250Z,15.8
2023-06-13T05:06:21.427Z,15.8
2023-06-13T05:07:22.615Z,15.8
2023-06-13T05:08:23.759Z,15.9
2023-06-13T05:09:24.932Z,15.9
2023-06-13T05:10:26.172Z,15.9
2023-06-13T05:11:27.335Z,16
2023-06-13T05:12:28.506Z,16
2023-06-13T05:13:29.684Z,16
2023-06-13T05:14:30.849Z,16
2023-06-13T05:15:32.208Z,16.1
2023-06-13T05:16:33.515Z,16.1
2023-06-13T05:17:34.971Z,16.1
2023-06-13T05:18:36.201Z,16.1
2023-06-13T05:19:37.463Z,16.2
2023-06-13T05:20:38.628Z,16.2
2023-06-13T05:21:39.802Z,16.2
2023-06-13T05:22:40.989Z,16.2
2023-06-13T05:23:42.187Z,16.2
2023-06-13T05:24:43.347Z,16.3
2023-06-13T05:25:44.550Z,16.3
2023-06-13T05:26:45.715Z,16.3
2023-06-13T05:27:46.901Z,16.4
2023-06-13T05:28:48.080Z,16.4
2023-06-13T05:29:49.235Z,16.4
2023-06-13T05:30:50.417Z,16.4
2023-06-13T05:31:51.611Z,16.5
2023-06-13T05:32:52.871Z,16.5
2023-06-13T05:33:54.419Z,16.5
2023-06-13T05:34:55.580Z,16.6
2023-06-13T05:35:58.147Z,16.6
2023-06-13T05:36:59.798Z,16.6
2023-06-13T05:38:00.993Z,16.7
2023-06-13T05:39:02.147Z,16.7
2023-06-13T05:40:03.463Z,16.7
2023-06-13T05:41:04.631Z,16.8
2023-06-13T05:42:05.788Z,16.8
2023-06-13T05:43:06.961Z,16.8
2023-06-13T05:44:08.134Z,16.9
2023-06-13T05:45:09.298Z,16.9
2023-06-13T05:46:10.466Z,17
2023-06-13T05:47:11.618Z,17
2023-06-13T05:48:12.790Z,17.1
2023-06-13T05:49:14.018Z,17.1
2023-06-13T05:50:15.465Z,17.2
2023-06-13T05:51:17.481Z,17.2
2023-06-13T05:52:18.623Z,17.2
2023-06-13T05:53:19.814Z,17.3
2023-06-13T05:54:20.974Z,17.3
2023-06-13T05:55:22.136Z,17.3
2023-06-13T05:56:23.304Z,17.4
2023-06-13T05:57:24.471Z,17.4
2023-06-13T05:58:25.637Z,17.5
2023-06-13T05:59:26.810Z,17.5
2023-06-13T06:00:27.965Z,17.5
2023-06-13T06:01:29.132Z,17.5
2023-06-13T06:02:30.380Z,17.5
2023-06-13T06:03:31.914Z,17.6
2023-06-13T06:04:33.620Z,17.7
2023-06-13T06:05:34.840Z,17.7
2023-06-13T06:06:36.001Z,17.7
2023-06-13T06:07:37.182Z,17.7
2023-06-13T06:08:38.473Z,17.7
2023-06-13T06:09:39.601Z,17.8
2023-06-13T06:10:40.769Z,17.9
2023-06-13T06:11:41.933Z,17.9
2023-06-13T06:12:43.092Z,17.9
2023-06-13T06:13:44.432Z,17.9
2023-06-13T06:14:45.596Z,18
2023-06-13T06:15:46.759Z,17.9
2023-06-13T06:16:47.929Z,18
2023-06-13T06:17:49.149Z,18.1
2023-06-13T06:18:50.668Z,18.1
2023-06-13T06:19:52.390Z,18.2
2023-06-13T06:20:53.549Z,18.2
2023-06-13T06:21:54.862Z,18.3
2023-06-13T06:22:56.002Z,18.3
2023-06-13T06:23:57.225Z,18.4
2023-06-13T06:24:58.381Z,18.4
2023-06-13T06:25:59.549Z,18.4
2023-06-13T06:27:00.731Z,18.5
2023-06-13T06:28:01.900Z,18.5
2023-06-13T06:29:03.059Z,18.6
2023-06-13T06:30:04.215Z,18.6
2023-06-13T06:31:05.400Z,18.7
2023-06-13T06:32:06.658Z,18.8
2023-06-13T06:33:07.865Z,18.9
2023-06-13T06:34:09.075Z,18.9
2023-06-13T06:35:10.233Z,19
2023-06-13T06:36:11.396Z,19.1
2023-06-13T06:37:13.963Z,19.2
2023-06-13T06:38:15.257Z,19.2
2023-06-13T06:39:16.459Z,19.3
2023-06-13T06:40:18.000Z,19.4
2023-06-13T06:41:19.608Z,19.5
2023-06-13T06:42:20.768Z,19.6
2023-06-13T06:43:21.990Z,19.7
2023-06-13T06:44:32.261Z,19.8
2023-06-13T06:45:46.556Z,19.8
2023-06-13T06:46:47.763Z,19.9
2023-06-13T06:47:49.052Z,19.9
2023-06-13T06:48:50.251Z,20
2023-06-13T06:49:51.430Z,20.1
2023-06-13T06:50:52.571Z,20.2
2023-06-13T06:51:53.739Z,20.2
2023-06-13T06:52:54.912Z,20.2
2023-06-13T06:53:56.070Z,20.4
2023-06-13T06:54:57.278Z,20.6
2023-06-13T06:55:58.414Z,20.8
2023-06-13T06:56:59.574Z,20.9
2023-06-13T06:58:00.794Z,20.9
2023-06-13T06:59:01.975Z,21
2023-06-13T07:00:03.142Z,21.2
2023-06-13T07:01:04.494Z,21.4
2023-06-13T07:02:05.819Z,21.5
2023-06-13T07:03:07.201Z,21.7
2023-06-13T07:04:08.519Z,21.9
2023-06-13T07:05:09.823Z,22
2023-06-13T07:06:10.972Z,22.2
2023-06-13T07:07:12.138Z,22.3
2023-06-13T07:08:13.306Z,22.5
2023-06-13T07:09:14.509Z,22.7
2023-06-13T07:10:15.902Z,22.8
2023-06-13T07:11:17.982Z,23
2023-06-13T07:12:19.205Z,23.1
2023-06-13T07:13:20.385Z,23.3
2023-06-13T07:14:21.521Z,23.5
2023-06-13T07:15:22.690Z,23.6
2023-06-13T07:16:23.890Z,23.8
2023-06-13T07:17:25.119Z,23.9
2023-06-13T07:18:26.331Z,24.1
2023-06-13T07:19:27.526Z,24.2
2023-06-13T07:20:28.668Z,24.4
2023-06-13T07:21:29.833Z,24.5
2023-06-13T07:22:30.997Z,24.7
2023-06-13T07:23:32.163Z,24.8
2023-06-13T07:24:33.438Z,25
2023-06-13T07:25:34.745Z,25.1
2023-06-13T07:26:35.918Z,25.3
2023-06-13T07:27:37.101Z,25.4
2023-06-13T07:28:38.260Z,25.6
2023-06-13T07:29:39.448Z,25.7
2023-06-13T07:30:43.594Z,25.7
2023-06-13T07:31:52.891Z,25.9
2023-06-13T07:32:54.179Z,26.1
2023-06-13T07:34:01.301Z,26.1
2023-06-13T07:35:10.033Z,26.3
2023-06-13T07:36:14.231Z,26.4
2023-06-13T07:37:18.450Z,26.6
2023-06-13T07:39:36.962Z,26.8
2023-06-13T07:40:41.263Z,26.9
2023-06-13T07:41:42.491Z,27.1
2023-06-13T07:42:49.580Z,27.2
2023-06-13T07:43:50.816Z,27.4
2023-06-13T07:44:52.383Z,27.6
2023-06-13T07:45:53.780Z,27.7
2023-06-13T07:46:58.091Z,27.8
2023-06-13T07:48:07.664Z,27.9
2023-06-13T07:49:16.744Z,28.1
2023-06-13T07:50:25.415Z,28.2
2023-06-13T07:51:26.608Z,28.4
2023-06-13T07:52:55.899Z,28.5
2023-06-13T07:54:01.491Z,28.7
2023-06-13T07:55:05.671Z,28.9
2023-06-13T07:56:09.413Z,29
2023-06-13T07:57:34.249Z,29.2
2023-06-13T07:59:01.261Z,29.3
2023-06-13T08:00:05.177Z,29.5
2023-06-13T08:01:09.248Z,29.7
2023-06-13T08:03:27.058Z,30.1
2023-06-13T08:04:52.264Z,30.2
2023-06-13T08:05:59.098Z,30.5
2023-06-13T08:07:03.142Z,30.6
2023-06-13T08:08:13.641Z,30.8
2023-06-13T08:09:17.381Z,30.7
2023-06-13T08:10:18.699Z,30.7
2023-06-13T08:11:26.551Z,30.7
2023-06-13T08:12:33.334Z,30.8
2023-06-13T08:13:34.561Z,30.8
2023-06-13T08:14:41.620Z,30.6
2023-06-13T08:15:48.946Z,30.5
2023-06-13T08:16:55.297Z,30.7
2023-06-13T08:18:14.421Z,30.6
2023-06-13T08:19:23.904Z,31
2023-06-13T08:20:25.203Z,30.9
2023-06-13T08:21:31.462Z,30.7
2023-06-13T08:22:32.645Z,30.6
2023-06-13T08:23:38.623Z,30.7
2023-06-13T08:24:42.789Z,30.6
2023-06-13T08:25:47.238Z,30.6
2023-06-13T08:27:57.755Z,30.5
2023-06-13T08:29:03.797Z,30.6
2023-06-13T08:30:15.792Z,30.7
2023-06-13T08:31:39.897Z,30.7
2023-06-13T08:34:09.222Z,30.5
2023-06-13T08:35:20.086Z,30.9
2023-06-13T08:36:31.705Z,31.2
2023-06-13T08:37:34.137Z,31.5
2023-06-13T08:38:51.757Z,31.6
2023-06-13T08:39:53.987Z,32
2023-06-13T08:42:11.432Z,32.2
2023-06-13T08:43:12.984Z,32.1
2023-06-13T08:44:24.344Z,32.2
2023-06-13T08:45:28.693Z,32.6
2023-06-13T08:46:30.220Z,32.9
2023-06-13T08:47:37.614Z,33.1
2023-06-13T08:50:00.885Z,33.3
2023-06-13T08:51:05.149Z,33.3
2023-06-13T08:52:51.728Z,33
2023-06-13T08:53:55.775Z,33.3
2023-06-13T08:56:55.787Z,33.9
2023-06-13T08:57:59.334Z,33.6
2023-06-13T08:59:03.604Z,33.8
2023-06-13T09:00:10.389Z,33.6
2023-06-13T09:01:11.961Z,33.8
2023-06-13T09:02:39.718Z,33.9
2023-06-13T09:03:56.851Z,33.9
2023-06-13T09:05:21.782Z,33.8
2023-06-13T09:06:23.273Z,34.1
2023-06-13T09:07:35.238Z,34.1
2023-06-13T09:08:39.379Z,34.3
2023-06-13T09:09:45.916Z,34.4
2023-06-13T09:10:55.882Z,34.7
2023-06-13T09:11:59.717Z,34.8
2023-06-13T09:13:06.248Z,35
2023-06-13T09:14:10.155Z,35.1
2023-06-13T09:15:19.481Z,35.2
2023-06-13T09:16:29.975Z,35.1
2023-06-13T09:19:03.889Z,35.3
2023-06-13T09:20:10.193Z,35.5
2023-06-13T09:21:11.481Z,35.7
2023-06-13T09:22:18.122Z,35.6
2023-06-13T09:23:19.284Z,35.6
2023-06-13T09:24:32.583Z,35.7
2023-06-13T09:25:43.780Z,36
2023-06-13T09:26:55.014Z,36.1
2023-06-13T09:28:05.309Z,36.2
2023-06-13T09:29:26.868Z,36.4
2023-06-13T09:30:45.893Z,36.5
2023-06-13T09:33:10.475Z,36.8
2023-06-13T09:34:11.726Z,36.9
2023-06-13T09:35:15.603Z,37
2023-06-13T09:36:45.091Z,37.2
2023-06-13T09:37:51.225Z,37.3
2023-06-13T09:39:07.747Z,37.4
2023-06-13T09:40:14.520Z,37.5
2023-06-13T09:41:19.118Z,37.6
2023-06-13T09:42:25.559Z,37.7
2023-06-13T09:47:13.486Z,38.1
2023-06-13T09:48:22.961Z,38.3
2023-06-13T09:49:27.044Z,38.4
2023-06-13T09:57:11.181Z,39
2023-06-13T09:58:27.559Z,39.1
2023-06-13T09:59:37.612Z,39.3
2023-06-13T10:00:41.805Z,39.4
2023-06-13T10:01:48.970Z,39.5
2023-06-13T10:02:59.490Z,39
2023-06-13T10:04:23.710Z,38.5
2023-06-13T10:08:09.135Z,37.8
2023-06-13T10:09:15.268Z,37.6
2023-06-13T10:10:19.633Z,37.4
2023-06-13T10:11:23.617Z,37.2
2023-06-13T10:12:35.653Z,37
2023-06-13T10:13:47.203Z,37.6
2023-06-13T10:14:51.548Z,37.8
2023-06-13T10:15:58.114Z,37.9
2023-06-13T10:17:10.530Z,38.1
2023-06-13T10:18:25.310Z,38.3
2023-06-13T10:21:51.723Z,38.2
2023-06-13T10:22:56.241Z,38.5
2023-06-13T10:25:03.628Z,38.8
2023-06-13T10:26:12.255Z,39
2023-06-13T10:27:25.193Z,39.2
2023-06-13T10:28:34.621Z,39.3
2023-06-13T10:29:45.746Z,39.2
2023-06-13T10:30:46.991Z,39.4
2023-06-13T10:31:55.857Z,39.5
2023-06-13T10:33:03.058Z,39.6
2023-06-13T10:34:10.110Z,39.7
2023-06-13T10:35:58.686Z,39.9
2023-06-13T10:38:14.831Z,40.2
2023-06-13T10:39:19.028Z,40.3
2023-06-13T10:40:34.439Z,40.5
2023-06-13T10:41:45.774Z,40.6
2023-06-13T10:42:51.628Z,40.7
2023-06-13T10:44:18.688Z,40.3
2023-06-13T10:45:22.795Z,40.2
2023-06-13T10:46:27.028Z,39.8
2023-06-13T10:47:45.559Z,39.4
2023-06-13T10:49:05.064Z,39.2
2023-06-13T10:50:13.759Z,38.8
2023-06-13T10:51:18.878Z,38.9
2023-06-13T10:52:22.656Z,39.2
2023-06-13T10:54:32.331Z,39.5
2023-06-13T10:55:45.307Z,39.7
2023-06-13T10:56:49.779Z,39.8
2023-06-13T10:57:56.760Z,40
2023-06-13T10:59:03.438Z,40.1
2023-06-13T11:00:07.559Z,40.2
2023-06-13T11:01:15.157Z,40.2
2023-06-13T11:02:16.491Z,39.7
2023-06-13T11:04:00.891Z,39.4
2023-06-13T11:05:09.886Z,40
2023-06-13T11:06:42.862Z,40.3
2023-06-13T11:08:06.412Z,39.8
2023-06-13T11:09:07.667Z,39.4
2023-06-13T11:10:14.440Z,39.2
2023-06-13T11:11:29.943Z,39.5
2023-06-13T11:12:33.170Z,39.6
2023-06-13T11:13:44.261Z,39.5
2023-06-13T11:15:59.888Z,39.3
2023-06-13T11:17:03.836Z,39.1
2023-06-13T11:18:16.407Z,38.7
2023-06-13T11:19:29.307Z,38.5
2023-06-13T11:20:36.031Z,38.2
2023-06-13T11:21:42.132Z,38.6
2023-06-13T11:22:50.630Z,38.8
2023-06-13T11:25:05.314Z,38.8
2023-06-13T11:26:09.133Z,39
2023-06-13T11:27:30.789Z,39.3
2023-06-13T11:28:32.112Z,38.9
2023-06-13T11:29:40.948Z,38.9
2023-06-13T11:30:45.011Z,38.5
2023-06-13T11:31:51.069Z,38.2
2023-06-13T11:32:57.958Z,38
2023-06-13T11:34:07.562Z,37.8
2023-06-13T11:35:14.033Z,37.6
2023-06-13T11:36:26.116Z,37.7
2023-06-13T11:37:46.684Z,38.1
2023-06-13T11:40:48.686Z,37.8
2023-06-13T11:41:57.824Z,37.9
2023-06-13T11:43:05.619Z,38.1
2023-06-13T11:44:09.663Z,38.4
2023-06-13T11:46:53.524Z,38.7
2023-06-13T11:47:54.911Z,38.1
2023-06-13T11:50:07.042Z,37.7
2023-06-13T11:51:14.246Z,37.5
2023-06-13T11:52:18.360Z,37.2
2023-06-13T11:53:28.528Z,37.3
2023-06-13T11:54:37.325Z,37.7
2023-06-13T11:55:44.390Z,37.7
2023-06-13T11:56:53.545Z,37.8
2023-06-13T11:57:59.625Z,38
2023-06-13T11:59:11.877Z,38.2
2023-06-13T12:00:21.240Z,38.3
2023-06-13T12:01:46.269Z,38.5
2023-06-13T12:02:58.129Z,38.6
2023-06-13T12:04:03.236Z,38.7
2023-06-13T12:05:10.211Z,38.8
2023-06-13T12:08:38.105Z,38.8
2023-06-13T12:09:49.572Z,38.4
2023-06-13T12:10:53.810Z,38.1
2023-06-13T12:12:02.976Z,37.9
2023-06-13T12:13:10.084Z,38.1
2023-06-13T12:15:24.673Z,38.6
2023-06-13T12:16:25.924Z,38.7
2023-06-13T12:17:30.106Z,38.8
2023-06-13T12:18:40.306Z,38.9
2023-06-13T12:19:46.468Z,39
2023-06-13T12:20:50.238Z,39.2
2023-06-13T12:21:51.412Z,39.3
2023-06-13T12:23:14.630Z,39.4
2023-06-13T12:24:29.294Z,39.6
2023-06-13T12:25:44.699Z,39.7
2023-06-13T12:26:48.491Z,39.8
2023-06-13T12:27:52.289Z,39.9
2023-06-13T12:28:58.280Z,40
2023-06-13T12:30:12.699Z,40.1
2023-06-13T12:31:21.090Z,39.9
2023-06-13T12:32:37.084Z,40
2023-06-13T12:33:38.862Z,40.2
2023-06-13T12:34:45.403Z,40.3
2023-06-13T12:38:22.757Z,40.5
2023-06-13T12:39:31.856Z,40.5
2023-06-13T12:40:41.004Z,40.5
2023-06-13T12:42:03.016Z,40.6
2023-06-13T12:43:08.385Z,40.6
2023-06-13T13:25:17.725Z,38
2023-06-13T13:26:42.594Z,37.6
2023-06-13T13:27:46.364Z,37.7
2023-06-13T13:28:52.757Z,37.5
2023-06-13T13:30:01.032Z,37.3
2023-06-13T13:31:07.618Z,37
2023-06-13T13:32:11.284Z,36.8
2023-06-13T13:33:15.875Z,36.6
2023-06-13T13:34:23.138Z,36.4
2023-06-13T13:35:29.093Z,36.2
2023-06-13T13:36:36.590Z,36
2023-06-13T13:37:42.030Z,35.8
2023-06-13T13:39:30.237Z,35.5
2023-06-13T13:40:31.466Z,35.4
2023-06-13T13:41:38.618Z,35.2
2023-06-13T13:42:42.772Z,35
2023-06-13T13:44:22.861Z,35.2
2023-06-13T13:45:29.389Z,35.1
2023-06-13T13:46:51.694Z,34.9
2023-06-13T13:48:17.305Z,34.7
2023-06-13T13:49:18.968Z,34.9
2023-06-13T13:51:23.298Z,35
2023-06-13T13:52:30.216Z,35
2023-06-13T13:53:38.762Z,35.1
2023-06-13T13:54:40.031Z,35.1
2023-06-13T13:56:54.559Z,34.6
2023-06-13T13:58:17.539Z,34.6
2023-06-13T13:59:24.341Z,34.5
2023-06-13T14:00:48.442Z,34.3
2023-06-13T14:01:49.647Z,34.1
2023-06-13T14:04:08.340Z,33.6
2023-06-13T14:06:21.049Z,33.6
2023-06-13T14:07:50.761Z,33.6
2023-06-13T14:08:52.448Z,33.6
2023-06-13T14:11:21.424Z,33.5
2023-06-13T14:13:49.517Z,33.4
2023-06-13T14:15:07.115Z,33.3
2023-06-13T14:16:08.523Z,33.2
2023-06-13T14:17:36.326Z,33.1
2023-06-13T14:18:40.084Z,33
2023-06-13T14:19:44.027Z,33
2023-06-13T14:20:56.074Z,32.9
2023-06-13T15:04:13.040Z,30.6
2023-06-13T15:05:21.769Z,30.6
2023-06-13T15:06:25.996Z,30.5
2023-06-13T15:07:34.575Z,30.3
2023-06-13T15:08:36.911Z,30.2
2023-06-13T15:10:07.407Z,30.1
2023-06-13T15:11:08.625Z,30
2023-06-13T15:12:17.282Z,29.9
2023-06-13T15:13:23.935Z,29.7
2023-06-13T15:14:32.825Z,29.7
2023-06-13T15:15:39.662Z,29.5
2023-06-13T15:16:43.772Z,29.4
2023-06-13T15:17:59.180Z,29.3
2023-06-13T15:19:06.647Z,29.3
2023-06-13T15:20:13.499Z,29.3
2023-06-13T15:21:17.346Z,29.4
2023-06-13T15:22:18.579Z,29.4
2023-06-13T15:23:24.722Z,29.4
2023-06-13T15:24:32.752Z,29.4
2023-06-13T15:25:38.869Z,29.4
2023-06-13T15:26:42.993Z,29.4
2023-06-13T15:27:55.684Z,29.4
2023-06-13T15:29:49.240Z,29.4
2023-06-13T15:31:02.436Z,29.5
2023-06-13T15:32:14.209Z,29.5
2023-06-13T15:33:20.971Z,29.5
2023-06-13T15:34:27.822Z,29.5
2023-06-13T15:35:31.852Z,29.5
2023-06-13T15:37:47.108Z,29.3
2023-06-13T15:38:54.043Z,29.1
2023-06-13T15:40:04.013Z,29
2023-06-13T15:41:48.343Z,28.8
2023-06-13T15:42:52.508Z,28.8
2023-06-13T15:43:56.657Z,28.9
2023-06-13T15:45:03.666Z,28.8
2023-06-13T15:46:04.841Z,28.8
2023-06-13T15:47:13.933Z,28.8
2023-06-13T15:48:18.434Z,28.8
2023-06-13T15:49:19.655Z,28.8
2023-06-13T15:50:23.505Z,28.8
2023-06-13T15:51:36.637Z,28.7
2023-06-13T15:52:40.580Z,28.8
2023-06-13T15:54:58.289Z,28.8
2023-06-13T15:56:28.039Z,28.9
2023-06-13T15:57:32.232Z,28.9
2023-06-13T15:58:37.510Z,28.9
2023-06-13T15:59:44.041Z,28.9
2023-06-13T16:00:50.336Z,28.9
2023-06-13T16:01:57.300Z,28.8
2023-06-13T16:03:01.834Z,28.7
2023-06-13T16:04:21.213Z,28.6
2023-06-13T16:05:33.190Z,28.5
2023-06-13T16:06:44.817Z,28.4
2023-06-13T16:07:48.861Z,28.3
2023-06-13T16:08:50.193Z,28.2
2023-06-13T16:09:51.435Z,28.1
2023-06-13T16:11:25.982Z,28
2023-06-13T16:13:46.484Z,27.9
2023-06-13T16:14:53.403Z,27.9
2023-06-13T16:15:56.592Z,27.8
2023-06-13T16:17:21.077Z,27.8
2023-06-13T16:18:28.508Z,27.7
2023-06-13T16:20:17.879Z,27.8
2023-06-13T16:21:24.261Z,27.8
2023-06-13T16:22:25.859Z,27.8
2023-06-13T16:23:32.463Z,27.8
2023-06-13T16:24:36.876Z,27.8
2023-06-13T16:27:01.717Z,27.9
2023-06-13T16:28:02.964Z,27.9
2023-06-13T16:30:21.093Z,27.8
2023-06-13T16:31:25.382Z,27.8
2023-06-13T16:32:38.062Z,27.7
2023-06-13T16:33:48.759Z,27.6
2023-06-13T16:35:35.231Z,27.6
2023-06-13T16:36:41.815Z,27.6
2023-06-13T16:37:45.998Z,27.6
2023-06-13T16:38:49.905Z,27.6
2023-06-13T16:40:02.807Z,27.5
2023-06-13T16:41:07.168Z,27.4
2023-06-13T16:42:18.155Z,27.4
2023-06-13T16:43:27.143Z,27.4
2023-06-13T16:44:36.492Z,27.4
2023-06-13T16:45:45.575Z,27.3
2023-06-13T16:46:53.842Z,27.3
2023-06-13T16:48:01.143Z,27.3